createdAt,value
2022-11-20T00:02:40.039Z,4.81
2022-11-20T00:05:42.104Z,4.71
2022-11-20T00:08:44.453Z,4.78
2022-11-20T00:11:46.478Z,4.86
2022-11-20T00:14:48.686Z,4.90
2022-11-20T00:17:50.828Z,4.89
2022-11-20T00:20:52.884Z,5.01
2022-11-20T00:23:56.265Z,5.18
2022-11-20T00:26:58.278Z,5.02
2022-11-20T00:30:00.340Z,4.83
2022-11-20T00:33:02.358Z,4.86
2022-11-20T00:36:10.099Z,4.90
2022-11-20T00:39:12.163Z,5.02
2022-11-20T00:42:14.285Z,4.68
2022-11-20T00:45:16.440Z,4.71
2022-11-20T00:48:18.477Z,4.71
2022-11-20T00:51:24.032Z,4.88
2022-11-20T00:54:26.081Z,5.02
2022-11-20T00:57:28.099Z,4.93
2022-11-20T01:00:30.154Z,4.92
2022-11-20T01:03:40.520Z,4.96
2022-11-20T01:06:42.599Z,4.80
2022-11-20T01:09:44.665Z,4.63
2022-11-20T01:13:06.665Z,4.83
2022-11-20T01:16:15.499Z,4.74
2022-11-20T01:19:23.216Z,4.68
2022-11-20T01:22:25.313Z,4.74
2022-11-20T01:25:27.358Z,4.76
2022-11-20T01:28:30.020Z,4.78
2022-11-20T01:31:37.371Z,4.78
2022-11-20T01:34:39.410Z,5.01
2022-11-20T01:37:41.436Z,4.96
2022-11-20T01:40:43.668Z,5.10
2022-11-20T01:43:45.692Z,4.61
2022-11-20T01:47:02.768Z,4.70
2022-11-20T01:50:29.867Z,4.94
2022-11-20T01:53:34.325Z,4.62
2022-11-20T01:56:39.439Z,4.84
2022-11-20T01:59:46.280Z,4.85
2022-11-20T02:03:14.489Z,4.79
2022-11-20T02:06:29.079Z,4.77
2022-11-20T02:09:31.123Z,4.94
2022-11-20T02:12:51.886Z,4.57
2022-11-20T02:15:53.992Z,4.65
2022-11-20T02:18:58.569Z,4.71
2022-11-20T02:22:08.626Z,4.65
2022-11-20T02:25:10.738Z,4.59
2022-11-20T02:28:14.073Z,4.70
2022-11-20T02:31:16.327Z,4.56
2022-11-20T02:34:18.381Z,4.72
2022-11-20T02:37:20.890Z,4.78
2022-11-20T02:40:23.235Z,4.53
2022-11-20T02:43:25.410Z,4.56
2022-11-20T02:46:27.484Z,4.65
2022-11-20T02:49:29.581Z,4.47
2022-11-20T02:52:31.799Z,4.48
2022-11-20T02:55:34.025Z,4.44
2022-11-20T02:58:36.122Z,4.51
2022-11-20T03:01:38.285Z,4.50
2022-11-20T03:04:40.379Z,4.54
2022-11-20T03:07:42.573Z,4.46
2022-11-20T03:10:44.745Z,4.61
2022-11-20T03:13:46.907Z,4.43
2022-11-20T03:16:48.938Z,4.59
2022-11-20T03:19:51.109Z,4.49
2022-11-20T03:22:55.182Z,4.62
2022-11-20T03:25:57.281Z,4.48
2022-11-20T03:29:01.932Z,4.41
2022-11-20T03:32:04.090Z,4.59
2022-11-20T03:35:06.991Z,4.50
2022-11-20T03:38:09.190Z,4.50
2022-11-20T03:41:14.443Z,4.55
2022-11-20T03:44:16.629Z,4.55
2022-11-20T03:47:18.739Z,4.67
2022-11-20T03:50:20.949Z,4.74
2022-11-20T03:53:23.016Z,4.76
2022-11-20T03:56:30.967Z,4.63
2022-11-20T03:59:33.047Z,4.76
2022-11-20T04:02:35.228Z,4.71
2022-11-20T04:05:37.307Z,4.65
2022-11-20T04:08:39.806Z,4.54
2022-11-20T04:11:42.142Z,4.62
2022-11-20T04:14:49.234Z,4.72
2022-11-20T04:17:51.410Z,4.78
2022-11-20T04:20:53.586Z,4.82
2022-11-20T04:23:56.287Z,4.73
2022-11-20T04:26:58.420Z,4.74
2022-11-20T04:30:00.521Z,4.84
2022-11-20T04:33:02.619Z,4.57
2022-11-20T04:36:12.820Z,4.76
2022-11-20T04:39:16.307Z,4.71
2022-11-20T04:42:30.013Z,4.64
2022-11-20T04:45:32.093Z,4.60
2022-11-20T04:48:34.153Z,4.83
2022-11-20T04:51:36.205Z,4.72
2022-11-20T04:54:38.271Z,4.79
2022-11-20T04:57:40.303Z,4.78
2022-11-20T05:00:42.349Z,4.68
2022-11-20T05:03:44.789Z,4.53
2022-11-20T05:06:46.891Z,4.65
2022-11-20T05:09:48.920Z,4.92
2022-11-20T05:12:51.001Z,4.70
2022-11-20T05:15:53.086Z,4.80
2022-11-20T05:18:55.449Z,4.64
2022-11-20T05:21:57.692Z,4.91
2022-11-20T05:24:59.750Z,4.63
2022-11-20T05:28:01.851Z,4.87
2022-11-20T05:31:23.363Z,4.86
2022-11-20T05:34:28.546Z,4.86
2022-11-20T05:37:30.602Z,4.81
2022-11-20T05:40:32.651Z,4.90
2022-11-20T05:43:35.895Z,4.76
2022-11-20T05:46:37.979Z,4.87
2022-11-20T05:49:40.037Z,4.78
2022-11-20T05:52:42.188Z,4.82
2022-11-20T05:55:44.224Z,4.86
2022-11-20T05:58:47.552Z,4.79
2022-11-20T06:01:49.614Z,4.95
2022-11-20T06:04:51.672Z,4.97
2022-11-20T06:07:53.720Z,4.91
2022-11-20T06:10:55.835Z,4.83
2022-11-20T06:13:57.912Z,4.90
2022-11-20T06:16:59.940Z,4.79
2022-11-20T06:20:02.157Z,4.62
2022-11-20T06:23:09.189Z,4.83
2022-11-20T06:26:14.559Z,4.73
2022-11-20T06:29:16.698Z,4.83
2022-11-20T06:32:18.715Z,4.78
2022-11-20T06:35:20.799Z,4.66
2022-11-20T06:38:22.817Z,4.89
2022-11-20T06:41:25.075Z,4.97
2022-11-20T06:44:27.259Z,4.86
2022-11-20T06:47:29.346Z,4.84
2022-11-20T06:50:31.467Z,4.83
2022-11-20T06:53:33.814Z,4.85
2022-11-20T06:56:35.853Z,5.04
2022-11-20T06:59:37.920Z,4.85
2022-11-20T07:02:39.965Z,5.12
2022-11-20T07:05:42.124Z,4.77
2022-11-20T07:08:44.178Z,5.04
2022-11-20T07:11:46.210Z,4.97
2022-11-20T07:14:48.252Z,5.07
2022-11-20T07:17:50.372Z,4.91
2022-11-20T07:20:52.431Z,5.17
2022-11-20T07:23:54.492Z,5.16
2022-11-20T07:26:56.583Z,5.11
2022-11-20T07:29:58.722Z,5.51
2022-11-20T07:33:00.897Z,5.64
2022-11-20T07:36:03.140Z,5.67
2022-11-20T07:39:05.238Z,5.45
2022-11-20T07:42:07.923Z,5.58
2022-11-20T07:45:12.886Z,5.44
2022-11-20T07:48:15.013Z,5.65
2022-11-20T07:51:17.138Z,5.52
2022-11-20T07:54:19.176Z,5.50
2022-11-20T07:57:25.663Z,5.39
2022-11-20T08:00:30.398Z,5.37
2022-11-20T08:03:32.523Z,5.37
2022-11-20T08:06:34.570Z,5.34
2022-11-20T08:09:36.637Z,5.28
2022-11-20T08:13:06.760Z,5.68
2022-11-20T08:16:08.852Z,5.61
2022-11-20T08:19:11.136Z,5.93
2022-11-20T08:22:13.240Z,5.92
2022-11-20T08:25:15.358Z,5.73
2022-11-20T08:28:21.450Z,5.85
2022-11-20T08:31:27.874Z,5.83
2022-11-20T08:34:29.906Z,6.11
2022-11-20T08:37:32.076Z,6.22
2022-11-20T08:40:34.393Z,6.01
2022-11-20T08:43:36.439Z,5.99
2022-11-20T08:46:42.023Z,5.85
2022-11-20T08:49:44.104Z,6.22
2022-11-20T08:52:46.394Z,6.35
2022-11-20T08:55:48.960Z,6.13
2022-11-20T08:59:20.142Z,6.39
2022-11-20T09:02:17.070Z,6.11
2022-11-20T09:05:19.126Z,5.95
2022-11-20T09:08:21.172Z,6.24
2022-11-20T09:11:23.459Z,6.33
2022-11-20T09:14:30.038Z,6.24
2022-11-20T09:17:32.085Z,6.06
2022-11-20T09:20:34.164Z,6.26
2022-11-20T09:23:36.836Z,6.58
2022-11-20T09:26:38.920Z,6.47
2022-11-20T09:29:40.937Z,6.46
2022-11-20T09:32:43.822Z,6.35
2022-11-20T09:35:45.989Z,6.19
2022-11-20T09:38:48.324Z,6.26
2022-11-20T09:42:25.788Z,6.46
2022-11-20T09:45:34.928Z,6.78
2022-11-20T09:49:12.345Z,6.65
2022-11-20T09:52:48.427Z,6.63
2022-11-20T09:55:50.637Z,6.97
2022-11-20T09:58:54.489Z,6.48
2022-11-20T10:01:56.585Z,6.84
2022-11-20T10:05:24.237Z,6.92
2022-11-20T10:08:31.581Z,7.15
2022-11-20T10:11:56.478Z,7.08
2022-11-20T10:15:41.439Z,7.34
2022-11-20T10:19:18.416Z,7.31
2022-11-20T10:23:01.689Z,7.60
2022-11-20T10:26:19.219Z,8.31
2022-11-20T10:29:25.684Z,8.09
2022-11-20T10:32:35.985Z,8.04
2022-11-20T10:35:45.867Z,8.76
2022-11-20T10:38:51.263Z,8.53
2022-11-20T10:41:54.329Z,8.86
2022-11-20T10:45:14.077Z,9.63
2022-11-20T10:48:24.515Z,9.82
2022-11-20T10:51:39.026Z,10.24
2022-11-20T10:54:53.186Z,10.50
2022-11-20T10:59:11.789Z,9.77
2022-11-20T11:02:42.527Z,9.58
2022-11-20T11:05:56.325Z,9.40
2022-11-20T11:09:00.949Z,9.41
2022-11-20T11:12:06.988Z,9.05
2022-11-20T11:15:30.015Z,9.13
2022-11-20T11:18:34.190Z,9.70
2022-11-20T11:21:37.741Z,9.79
2022-11-20T11:24:42.714Z,10.22
2022-11-20T11:27:49.552Z,10.45
2022-11-20T11:30:51.695Z,10.62
2022-11-20T11:34:04.238Z,10.29
2022-11-20T11:37:06.801Z,10.73
2022-11-20T11:40:26.399Z,11.33
2022-11-20T11:43:50.737Z,10.99
2022-11-20T11:46:56.554Z,11.36
2022-11-20T11:50:28.455Z,11.87
2022-11-20T11:53:30.572Z,11.56
2022-11-20T11:56:33.124Z,11.78
2022-11-20T12:00:05.895Z,11.72
2022-11-20T12:03:19.600Z,12.35
2022-11-20T12:06:21.641Z,11.78
2022-11-20T12:09:25.936Z,12.70
2022-11-20T12:12:33.637Z,11.73
2022-11-20T12:15:35.783Z,11.83
2022-11-20T12:18:37.827Z,11.87
2022-11-20T12:22:04.133Z,12.47
2022-11-20T12:25:28.982Z,12.36
2022-11-20T12:28:55.485Z,12.93
2022-11-20T12:32:13.835Z,11.68
2022-11-20T12:35:30.291Z,10.72
2022-11-20T12:38:34.993Z,10.22
2022-11-20T12:42:26.959Z,10.02
2022-11-20T12:46:17.917Z,9.76
2022-11-20T12:49:47.510Z,9.33
2022-11-20T12:52:57.608Z,9.61
2022-11-20T12:56:02.431Z,10.81
2022-11-20T12:59:46.355Z,11.47
2022-11-20T13:03:10.135Z,9.62
2022-11-20T13:06:16.562Z,10.23
2022-11-20T13:09:22.822Z,11.03
2022-11-20T13:12:47.728Z,10.35
2022-11-20T13:16:26.748Z,10.14
2022-11-20T13:19:29.635Z,9.93
2022-11-20T13:22:49.191Z,9.85
2022-11-20T13:25:51.287Z,9.10
2022-11-20T13:29:20.236Z,9.91
2022-11-20T13:32:22.279Z,10.98
2022-11-20T13:35:37.397Z,10.03
2022-11-20T13:38:50.533Z,9.73
2022-11-20T13:42:01.335Z,9.32
2022-11-20T13:45:09.183Z,9.68
2022-11-20T13:48:25.719Z,9.41
2022-11-20T13:51:52.430Z,8.90
2022-11-20T13:55:07.247Z,8.82
2022-11-20T13:58:46.477Z,8.83
2022-11-20T14:01:48.691Z,9.06
2022-11-20T14:04:52.663Z,9.43
2022-11-20T14:07:54.757Z,8.58
2022-11-20T14:11:18.485Z,8.59
2022-11-20T14:14:23.610Z,7.70
2022-11-20T14:17:30.682Z,7.90
2022-11-20T14:20:32.800Z,7.55
2022-11-20T14:23:34.912Z,7.97
2022-11-20T14:26:37.370Z,8.10
2022-11-20T14:29:39.879Z,7.29
2022-11-20T14:32:42.432Z,6.84
2022-11-20T14:35:49.882Z,7.20
2022-11-20T14:38:52.868Z,7.21
2022-11-20T14:41:55.152Z,7.29
2022-11-20T14:44:59.466Z,7.46
2022-11-20T14:48:01.646Z,7.86
2022-11-20T14:51:03.699Z,8.12
2022-11-20T14:54:16.317Z,7.92
2022-11-20T14:57:30.079Z,8.09
2022-11-20T15:00:33.256Z,7.95
2022-11-20T15:03:37.240Z,8.12
2022-11-20T15:06:50.734Z,7.69
2022-11-20T15:10:13.656Z,8.17
2022-11-20T15:13:37.914Z,7.98
2022-11-20T15:16:39.940Z,7.35
2022-11-20T15:19:42.022Z,7.18
2022-11-20T15:22:44.314Z,6.83
2022-11-20T15:25:46.672Z,6.70
2022-11-20T15:28:51.172Z,6.91
2022-11-20T15:31:55.262Z,7.20
2022-11-20T15:34:57.328Z,7.22
2022-11-20T15:37:59.339Z,7.25
2022-11-20T15:41:01.397Z,7.58
2022-11-20T15:44:04.519Z,7.93
2022-11-20T15:47:06.560Z,8.10
2022-11-20T15:50:12.921Z,8.65
2022-11-20T15:53:15.022Z,8.62
2022-11-20T15:56:17.057Z,8.47
2022-11-20T15:59:19.184Z,8.37
2022-11-20T16:02:21.236Z,8.20
2022-11-20T16:05:24.244Z,8.46
2022-11-20T16:08:26.292Z,8.02
2022-11-20T16:11:28.356Z,7.33
2022-11-20T16:14:49.132Z,6.80
2022-11-20T16:17:51.173Z,6.34
2022-11-20T16:20:54.336Z,6.39
2022-11-20T16:23:56.431Z,6.43
2022-11-20T16:26:58.464Z,6.19
2022-11-20T16:30:00.553Z,6.16
2022-11-20T16:33:03.434Z,6.14
2022-11-20T16:36:13.705Z,6.33
2022-11-20T16:39:19.120Z,6.27
2022-11-20T16:42:25.294Z,6.21
2022-11-20T16:45:32.660Z,6.15
2022-11-20T16:48:35.914Z,6.31
2022-11-20T16:51:37.991Z,6.35
2022-11-20T16:54:40.042Z,5.98
2022-11-20T16:57:42.726Z,6.04
2022-11-20T17:00:51.242Z,6.10
2022-11-20T17:04:01.893Z,6.18
2022-11-20T17:07:08.017Z,6.14
2022-11-20T17:10:10.348Z,6.30
2022-11-20T17:13:12.433Z,6.23
2022-11-20T17:16:22.679Z,6.35
2022-11-20T17:19:24.716Z,6.36
2022-11-20T17:22:27.807Z,6.73
2022-11-20T17:25:33.357Z,6.91
2022-11-20T17:28:36.070Z,6.91
2022-11-20T17:31:38.677Z,7.04
2022-11-20T17:34:40.798Z,7.15
2022-11-20T17:37:42.864Z,6.74
2022-11-20T17:40:45.771Z,6.67
2022-11-20T17:43:48.464Z,6.72
2022-11-20T17:46:50.493Z,6.61
2022-11-20T17:49:53.630Z,6.68
2022-11-20T17:52:55.718Z,6.56
2022-11-20T17:56:17.072Z,6.43
2022-11-20T17:59:19.416Z,6.26
2022-11-20T18:02:21.555Z,6.10
2022-11-20T18:05:23.788Z,6.34
2022-11-20T18:08:28.086Z,5.96
2022-11-20T18:11:33.848Z,6.90
2022-11-20T18:14:38.609Z,7.27
2022-11-20T18:17:40.633Z,7.30
2022-11-20T18:20:42.700Z,6.75
2022-11-20T18:23:44.734Z,6.58
2022-11-20T18:26:46.840Z,6.02
2022-11-20T18:29:51.956Z,6.05
2022-11-20T18:32:54.481Z,6.03
2022-11-20T18:35:56.513Z,5.84
2022-11-20T18:39:00.046Z,5.84
2022-11-20T18:42:21.010Z,5.37
2022-11-20T18:45:23.092Z,5.41
2022-11-20T18:48:25.119Z,5.20
2022-11-20T18:51:27.165Z,5.18
2022-11-20T18:54:29.237Z,5.19
2022-11-20T18:57:31.447Z,5.35
2022-11-20T19:00:33.548Z,5.19
2022-11-20T19:03:35.642Z,4.90
2022-11-20T19:06:38.245Z,5.08
2022-11-20T19:09:41.783Z,5.26
2022-11-20T19:12:43.879Z,5.37
2022-11-20T19:15:46.052Z,5.09
2022-11-20T19:18:48.469Z,5.22
2022-11-20T19:21:52.059Z,5.37
2022-11-20T19:24:54.137Z,5.37
2022-11-20T19:27:56.187Z,5.59
2022-11-20T19:31:11.065Z,5.69
2022-11-20T19:34:13.256Z,5.54
2022-11-20T19:37:15.296Z,5.73
2022-11-20T19:40:17.353Z,5.24
2022-11-20T19:43:19.429Z,5.24
2022-11-20T19:46:21.673Z,5.48
2022-11-20T19:49:23.885Z,5.32
2022-11-20T19:52:26.044Z,5.47
2022-11-20T19:55:28.133Z,5.43
2022-11-20T19:58:30.402Z,5.41
2022-11-20T20:01:32.720Z,5.68
2022-11-20T20:04:34.917Z,5.79
2022-11-20T20:07:40.091Z,6.14
2022-11-20T20:10:42.245Z,6.26
2022-11-20T20:13:44.750Z,6.29
2022-11-20T20:16:46.919Z,5.68
2022-11-20T20:19:48.962Z,4.98
2022-11-20T20:22:51.069Z,4.54
2022-11-20T20:25:53.146Z,4.23
2022-11-20T20:28:55.363Z,4.38
2022-11-20T20:31:57.410Z,4.66
2022-11-20T20:34:59.544Z,4.82
2022-11-20T20:38:01.650Z,4.93
2022-11-20T20:41:03.826Z,5.18
2022-11-20T20:44:24.444Z,5.06
2022-11-20T20:47:37.630Z,5.03
2022-11-20T20:50:39.900Z,5.35
2022-11-20T20:53:41.939Z,5.58
2022-11-20T20:56:43.977Z,5.15
2022-11-20T20:59:46.005Z,5.01
2022-11-20T21:02:48.041Z,4.91
2022-11-20T21:05:56.284Z,4.76
2022-11-20T21:08:58.760Z,4.76
2022-11-20T21:12:00.817Z,4.99
2022-11-20T21:15:02.883Z,5.06
2022-11-20T21:18:05.108Z,5.17
2022-11-20T21:21:31.429Z,5.25
2022-11-20T21:24:35.572Z,5.53
2022-11-20T21:27:37.704Z,5.33
2022-11-20T21:30:39.746Z,5.40
2022-11-20T21:33:46.444Z,5.36
2022-11-20T21:36:48.559Z,5.09
2022-11-20T21:39:52.097Z,5.21
2022-11-20T21:42:54.289Z,5.02
2022-11-20T21:46:07.995Z,4.66
2022-11-20T21:49:10.353Z,4.75
2022-11-20T21:52:12.894Z,4.36
2022-11-20T21:55:14.965Z,4.22
2022-11-20T21:58:17.023Z,4.25
2022-11-20T22:01:25.608Z,4.24
2022-11-20T22:04:27.753Z,4.27
2022-11-20T22:07:29.853Z,4.34
2022-11-20T22:10:32.067Z,4.40
2022-11-20T22:13:52.938Z,4.37
2022-11-20T22:16:55.113Z,4.32
2022-11-20T22:19:57.126Z,4.39
2022-11-20T22:22:59.316Z,4.32
2022-11-20T22:26:14.615Z,4.44
2022-11-20T22:29:21.129Z,4.49
2022-11-20T22:32:23.256Z,4.50
2022-11-20T22:35:25.474Z,4.66
2022-11-20T22:38:29.612Z,4.66
2022-11-20T22:41:32.185Z,4.76
2022-11-20T22:44:34.234Z,4.74
2022-11-20T22:47:36.340Z,4.82
2022-11-20T22:50:38.377Z,4.82
2022-11-20T22:53:41.449Z,4.88
2022-11-20T22:56:43.524Z,5.16
2022-11-20T22:59:45.585Z,5.26
2022-11-20T23:02:47.726Z,5.63
2022-11-20T23:05:49.973Z,5.71
2022-11-20T23:08:52.284Z,5.42
2022-11-20T23:11:54.487Z,4.99
2022-11-20T23:14:56.581Z,5.14
2022-11-20T23:17:58.706Z,5.23
2022-11-20T23:21:12.541Z,5.55
2022-11-20T23:24:14.655Z,5.54
2022-11-20T23:27:19.634Z,5.55
2022-11-20T23:30:22.079Z,5.38
2022-11-20T23:33:24.193Z,5.41
2022-11-20T23:36:26.598Z,5.75
2022-11-20T23:39:28.738Z,5.58
2022-11-20T23:42:30.846Z,5.51
2022-11-20T23:45:38.109Z,5.35
2022-11-20T23:48:40.243Z,5.41
2022-11-20T23:51:42.341Z,5.34
2022-11-20T23:54:44.550Z,5.48
2022-11-20T23:57:46.635Z,5.63
